sensor_id;sensor_type;location;lat;lon;timestamp;temperature;humidity
29295;DHT22;16305;48.566;8.846;2022-12-29T00:01:36;5.10;99.90
29295;DHT22;16305;48.566;8.846;2022-12-29T00:04:02;5.20;99.90
29295;DHT22;16305;48.566;8.846;2022-12-29T00:06:28;5.20;99.90
29295;DHT22;16305;48.566;8.846;2022-12-29T00:08:54;5.30;99.90
29295;DHT22;16305;48.566;8.846;2022-12-29T00:11:22;5.50;99.90
29295;DHT22;16305;48.566;8.846;2022-12-29T00:13:48;5.60;99.90
29295;DHT22;16305;48.566;8.846;2022-12-29T00:16:33;5.70;99.90
29295;DHT22;16305;48.566;8.846;2022-12-29T00:18:59;5.80;99.90
29295;DHT22;16305;48.566;8.846;2022-12-29T00:21:25;5.90;99.90
29295;DHT22;16305;48.566;8.846;2022-12-29T00:24:21;6.00;99.90
29295;DHT22;16305;48.566;8.846;2022-12-29T00:29:50;6.00;99.90
29295;DHT22;16305;48.566;8.846;2022-12-29T00:32:34;6.00;99.90
29295;DHT22;16305;48.566;8.846;2022-12-29T00:35:33;6.00;99.90
29295;DHT22;16305;48.566;8.846;2022-12-29T00:38:03;6.00;99.90
29295;DHT22;16305;48.566;8.846;2022-12-29T00:40:48;6.00;99.90
29295;DHT22;16305;48.566;8.846;2022-12-29T00:43:32;6.20;99.90
29295;DHT22;16305;48.566;8.846;2022-12-29T00:46:16;6.20;99.90
29295;DHT22;16305;48.566;8.846;2022-12-29T00:48:41;6.40;99.90
29295;DHT22;16305;48.566;8.846;2022-12-29T00:51:25;6.50;99.90
29295;DHT22;16305;48.566;8.846;2022-12-29T00:53:51;6.60;99.90
29295;DHT22;16305;48.566;8.846;2022-12-29T00:56:16;6.70;99.90
29295;DHT22;16305;48.566;8.846;2022-12-29T00:58:42;6.70;99.90
29295;DHT22;16305;48.566;8.846;2022-12-29T01:01:08;6.70;99.90
29295;DHT22;16305;48.566;8.846;2022-12-29T01:03:35;6.70;99.90
29295;DHT22;16305;48.566;8.846;2022-12-29T01:06:07;6.70;99.90
29295;DHT22;16305;48.566;8.846;2022-12-29T01:08:33;6.80;99.90
29295;DHT22;16305;48.566;8.846;2022-12-29T01:11:04;7.00;99.90
29295;DHT22;16305;48.566;8.846;2022-12-29T01:13:30;7.10;99.90
29295;DHT22;16305;48.566;8.846;2022-12-29T01:15:56;7.00;99.90
29295;DHT22;16305;48.566;8.846;2022-12-29T01:18:22;7.00;99.90
29295;DHT22;16305;48.566;8.846;2022-12-29T01:20:48;6.90;99.90
29295;DHT22;16305;48.566;8.846;2022-12-29T01:23:14;7.00;99.90
29295;DHT22;16305;48.566;8.846;2022-12-29T01:25:39;7.00;99.90
29295;DHT22;16305;48.566;8.846;2022-12-29T01:28:05;7.10;99.90
29295;DHT22;16305;48.566;8.846;2022-12-29T01:30:32;7.10;99.90
29295;DHT22;16305;48.566;8.846;2022-12-29T01:32:57;7.00;99.90
29295;DHT22;16305;48.566;8.846;2022-12-29T01:35:23;7.10;99.90
29295;DHT22;16305;48.566;8.846;2022-12-29T01:37:49;7.10;99.90
29295;DHT22;16305;48.566;8.846;2022-12-29T01:40:14;7.20;99.90
29295;DHT22;16305;48.566;8.846;2022-12-29T01:42:40;7.20;99.90
29295;DHT22;16305;48.566;8.846;2022-12-29T01:45:13;7.20;99.90
29295;DHT22;16305;48.566;8.846;2022-12-29T01:47:43;7.20;99.90
29295;DHT22;16305;48.566;8.846;2022-12-29T01:50:26;7.20;99.90
29295;DHT22;16305;48.566;8.846;2022-12-29T01:53:03;7.20;99.90
29295;DHT22;16305;48.566;8.846;2022-12-29T01:55:35;7.20;99.90
29295;DHT22;16305;48.566;8.846;2022-12-29T01:58:04;7.20;99.90
29295;DHT22;16305;48.566;8.846;2022-12-29T02:00:30;7.20;99.90
29295;DHT22;16305;48.566;8.846;2022-12-29T02:02:55;7.20;99.90
29295;DHT22;16305;48.566;8.846;2022-12-29T02:05:27;7.20;99.90
29295;DHT22;16305;48.566;8.846;2022-12-29T02:07:54;7.20;99.90
29295;DHT22;16305;48.566;8.846;2022-12-29T02:10:21;7.10;99.90
29295;DHT22;16305;48.566;8.846;2022-12-29T02:12:48;7.10;99.90
29295;DHT22;16305;48.566;8.846;2022-12-29T02:15:13;7.20;99.90
29295;DHT22;16305;48.566;8.846;2022-12-29T02:17:57;7.10;99.90
29295;DHT22;16305;48.566;8.846;2022-12-29T02:26:37;7.20;99.90
29295;DHT22;16305;48.566;8.846;2022-12-29T02:29:19;7.10;99.90
29295;DHT22;16305;48.566;8.846;2022-12-29T02:32:02;7.10;99.90
29295;DHT22;16305;48.566;8.846;2022-12-29T02:37:08;7.60;99.90
29295;DHT22;16305;48.566;8.846;2022-12-29T02:40:03;8.00;99.90
29295;DHT22;16305;48.566;8.846;2022-12-29T02:42:46;8.90;99.90
29295;DHT22;16305;48.566;8.846;2022-12-29T02:48:28;9.30;99.90
29295;DHT22;16305;48.566;8.846;2022-12-29T02:51:04;9.60;99.90
29295;DHT22;16305;48.566;8.846;2022-12-29T02:53:33;9.50;99.90
29295;DHT22;16305;48.566;8.846;2022-12-29T02:56:18;9.50;99.90
29295;DHT22;16305;48.566;8.846;2022-12-29T02:58:43;9.60;99.90
29295;DHT22;16305;48.566;8.846;2022-12-29T03:04:10;9.90;99.90
29295;DHT22;16305;48.566;8.846;2022-12-29T03:06:50;9.90;99.90
29295;DHT22;16305;48.566;8.846;2022-12-29T03:15:02;10.10;99.90
29295;DHT22;16305;48.566;8.846;2022-12-29T03:17:55;10.10;99.90
29295;DHT22;16305;48.566;8.846;2022-12-29T03:20:39;10.10;99.90
29295;DHT22;16305;48.566;8.846;2022-12-29T03:23:09;10.20;99.90
29295;DHT22;16305;48.566;8.846;2022-12-29T03:25:39;10.00;99.90
29295;DHT22;16305;48.566;8.846;2022-12-29T03:28:09;10.00;99.90
29295;DHT22;16305;48.566;8.846;2022-12-29T03:30:36;10.00;99.90
29295;DHT22;16305;48.566;8.846;2022-12-29T03:33:04;10.00;99.90
29295;DHT22;16305;48.566;8.846;2022-12-29T03:35:35;10.00;99.90
29295;DHT22;16305;48.566;8.846;2022-12-29T03:40:32;10.10;99.90
29295;DHT22;16305;48.566;8.846;2022-12-29T03:42:59;10.00;99.90
29295;DHT22;16305;48.566;8.846;2022-12-29T03:45:25;10.00;99.90
29295;DHT22;16305;48.566;8.846;2022-12-29T03:47:52;10.00;99.90
29295;DHT22;16305;48.566;8.846;2022-12-29T03:50:18;9.90;99.90
29295;DHT22;16305;48.566;8.846;2022-12-29T03:52:43;9.80;99.90
29295;DHT22;16305;48.566;8.846;2022-12-29T03:55:09;9.80;99.90
29295;DHT22;16305;48.566;8.846;2022-12-29T03:57:35;9.90;99.90
29295;DHT22;16305;48.566;8.846;2022-12-29T04:00:00;10.00;99.90
29295;DHT22;16305;48.566;8.846;2022-12-29T04:02:26;9.90;99.90
29295;DHT22;16305;48.566;8.846;2022-12-29T04:04:52;9.90;99.90
29295;DHT22;16305;48.566;8.846;2022-12-29T04:07:17;10.00;99.90
29295;DHT22;16305;48.566;8.846;2022-12-29T04:09:43;9.90;99.90
29295;DHT22;16305;48.566;8.846;2022-12-29T04:12:08;9.90;99.90
29295;DHT22;16305;48.566;8.846;2022-12-29T04:14:34;9.80;99.90
29295;DHT22;16305;48.566;8.846;2022-12-29T04:16:59;9.80;99.90
29295;DHT22;16305;48.566;8.846;2022-12-29T04:19:25;9.80;99.90
29295;DHT22;16305;48.566;8.846;2022-12-29T04:21:50;9.70;99.90
29295;DHT22;16305;48.566;8.846;2022-12-29T04:24:16;9.70;99.90
29295;DHT22;16305;48.566;8.846;2022-12-29T04:26:41;9.70;99.90
29295;DHT22;16305;48.566;8.846;2022-12-29T04:29:07;9.90;99.90
29295;DHT22;16305;48.566;8.846;2022-12-29T04:31:33;9.90;99.90
29295;DHT22;16305;48.566;8.846;2022-12-29T04:33:58;9.80;99.90
29295;DHT22;16305;48.566;8.846;2022-12-29T04:36:25;9.70;99.90
29295;DHT22;16305;48.566;8.846;2022-12-29T04:38:50;9.80;99.90
29295;DHT22;16305;48.566;8.846;2022-12-29T04:41:16;9.90;99.90
29295;DHT22;16305;48.566;8.846;2022-12-29T04:43:41;9.90;99.90
29295;DHT22;16305;48.566;8.846;2022-12-29T04:46:07;10.00;99.90
29295;DHT22;16305;48.566;8.846;2022-12-29T04:48:32;9.90;99.90
29295;DHT22;16305;48.566;8.846;2022-12-29T04:50:58;9.90;99.90
29295;DHT22;16305;48.566;8.846;2022-12-29T04:53:23;10.10;99.90
29295;DHT22;16305;48.566;8.846;2022-12-29T04:55:50;10.20;99.90
29295;DHT22;16305;48.566;8.846;2022-12-29T04:58:17;10.10;99.90
29295;DHT22;16305;48.566;8.846;2022-12-29T05:00:42;10.00;99.90
29295;DHT22;16305;48.566;8.846;2022-12-29T05:03:08;9.90;99.90
29295;DHT22;16305;48.566;8.846;2022-12-29T05:05:33;10.10;99.90
29295;DHT22;16305;48.566;8.846;2022-12-29T05:07:59;10.10;99.90
29295;DHT22;16305;48.566;8.846;2022-12-29T05:10:24;10.10;99.90
29295;DHT22;16305;48.566;8.846;2022-12-29T05:12:50;10.10;99.90
29295;DHT22;16305;48.566;8.846;2022-12-29T05:15:16;10.10;99.90
29295;DHT22;16305;48.566;8.846;2022-12-29T05:17:41;10.10;99.90
29295;DHT22;16305;48.566;8.846;2022-12-29T05:20:08;10.00;99.90
29295;DHT22;16305;48.566;8.846;2022-12-29T05:22:33;10.00;99.90
29295;DHT22;16305;48.566;8.846;2022-12-29T05:24:59;10.00;99.90
29295;DHT22;16305;48.566;8.846;2022-12-29T05:27:25;10.20;99.90
29295;DHT22;16305;48.566;8.846;2022-12-29T05:29:50;10.10;99.90
29295;DHT22;16305;48.566;8.846;2022-12-29T05:32:16;10.20;99.90
29295;DHT22;16305;48.566;8.846;2022-12-29T05:34:41;10.30;99.90
29295;DHT22;16305;48.566;8.846;2022-12-29T05:37:07;10.30;99.90
29295;DHT22;16305;48.566;8.846;2022-12-29T05:39:32;10.20;99.90
29295;DHT22;16305;48.566;8.846;2022-12-29T05:41:58;10.30;99.90
29295;DHT22;16305;48.566;8.846;2022-12-29T05:44:23;10.30;99.90
29295;DHT22;16305;48.566;8.846;2022-12-29T05:46:49;10.40;99.90
29295;DHT22;16305;48.566;8.846;2022-12-29T05:49:16;10.40;99.90
29295;DHT22;16305;48.566;8.846;2022-12-29T05:51:41;10.40;99.90
29295;DHT22;16305;48.566;8.846;2022-12-29T05:54:07;10.40;99.90
29295;DHT22;16305;48.566;8.846;2022-12-29T05:56:32;10.50;99.90
29295;DHT22;16305;48.566;8.846;2022-12-29T05:58:58;10.50;99.90
29295;DHT22;16305;48.566;8.846;2022-12-29T06:01:23;10.40;99.90
29295;DHT22;16305;48.566;8.846;2022-12-29T06:03:49;10.50;99.90
29295;DHT22;16305;48.566;8.846;2022-12-29T06:06:14;10.40;99.90
29295;DHT22;16305;48.566;8.846;2022-12-29T06:08:41;10.40;99.90
29295;DHT22;16305;48.566;8.846;2022-12-29T06:11:06;10.40;99.90
29295;DHT22;16305;48.566;8.846;2022-12-29T06:13:32;10.50;99.90
29295;DHT22;16305;48.566;8.846;2022-12-29T06:15:58;10.40;99.90
29295;DHT22;16305;48.566;8.846;2022-12-29T06:18:23;10.40;99.90
29295;DHT22;16305;48.566;8.846;2022-12-29T06:20:49;10.40;99.90
29295;DHT22;16305;48.566;8.846;2022-12-29T06:23:15;10.00;99.90
29295;DHT22;16305;48.566;8.846;2022-12-29T06:25:41;9.70;99.90
29295;DHT22;16305;48.566;8.846;2022-12-29T06:28:07;9.50;99.90
29295;DHT22;16305;48.566;8.846;2022-12-29T06:30:32;9.40;99.90
29295;DHT22;16305;48.566;8.846;2022-12-29T06:32:59;9.40;99.90
29295;DHT22;16305;48.566;8.846;2022-12-29T06:35:24;9.30;99.90
29295;DHT22;16305;48.566;8.846;2022-12-29T06:37:50;9.40;99.90
29295;DHT22;16305;48.566;8.846;2022-12-29T06:40:16;9.30;99.90
29295;DHT22;16305;48.566;8.846;2022-12-29T06:42:41;9.30;99.90
29295;DHT22;16305;48.566;8.846;2022-12-29T06:45:07;9.20;99.90
29295;DHT22;16305;48.566;8.846;2022-12-29T06:47:34;9.30;99.90
29295;DHT22;16305;48.566;8.846;2022-12-29T06:50:00;9.30;99.90
29295;DHT22;16305;48.566;8.846;2022-12-29T06:52:25;9.20;99.90
29295;DHT22;16305;48.566;8.846;2022-12-29T06:54:51;9.20;99.90
29295;DHT22;16305;48.566;8.846;2022-12-29T06:57:17;9.10;99.90
29295;DHT22;16305;48.566;8.846;2022-12-29T06:59:42;9.20;99.90
29295;DHT22;16305;48.566;8.846;2022-12-29T07:02:10;9.20;99.90
29295;DHT22;16305;48.566;8.846;2022-12-29T07:04:36;9.20;99.90
29295;DHT22;16305;48.566;8.846;2022-12-29T07:07:01;9.20;99.90
29295;DHT22;16305;48.566;8.846;2022-12-29T07:09:27;9.40;99.90
29295;DHT22;16305;48.566;8.846;2022-12-29T07:11:53;9.30;99.90
29295;DHT22;16305;48.566;8.846;2022-12-29T07:14:18;9.30;99.90
29295;DHT22;16305;48.566;8.846;2022-12-29T07:16:44;9.20;99.90
29295;DHT22;16305;48.566;8.846;2022-12-29T07:19:10;9.30;99.90
29295;DHT22;16305;48.566;8.846;2022-12-29T07:21:35;9.30;99.90
29295;DHT22;16305;48.566;8.846;2022-12-29T07:24:01;9.20;99.90
29295;DHT22;16305;48.566;8.846;2022-12-29T07:26:26;9.20;99.90
29295;DHT22;16305;48.566;8.846;2022-12-29T07:28:52;9.10;99.90
29295;DHT22;16305;48.566;8.846;2022-12-29T07:31:20;9.10;99.90
29295;DHT22;16305;48.566;8.846;2022-12-29T07:33:46;9.00;99.90
29295;DHT22;16305;48.566;8.846;2022-12-29T07:36:13;9.10;99.90
29295;DHT22;16305;48.566;8.846;2022-12-29T07:38:39;9.10;99.90
29295;DHT22;16305;48.566;8.846;2022-12-29T07:41:04;9.00;99.90
29295;DHT22;16305;48.566;8.846;2022-12-29T07:43:30;9.10;99.90
29295;DHT22;16305;48.566;8.846;2022-12-29T07:45:55;9.10;99.90
29295;DHT22;16305;48.566;8.846;2022-12-29T07:48:21;9.10;99.90
29295;DHT22;16305;48.566;8.846;2022-12-29T07:50:47;9.10;99.90
29295;DHT22;16305;48.566;8.846;2022-12-29T07:53:13;9.10;99.90
29295;DHT22;16305;48.566;8.846;2022-12-29T07:55:38;9.10;99.90
29295;DHT22;16305;48.566;8.846;2022-12-29T07:58:04;9.10;99.90
29295;DHT22;16305;48.566;8.846;2022-12-29T08:00:29;9.10;99.90
29295;DHT22;16305;48.566;8.846;2022-12-29T08:02:55;9.10;99.90
29295;DHT22;16305;48.566;8.846;2022-12-29T08:05:20;9.20;99.90
29295;DHT22;16305;48.566;8.846;2022-12-29T08:07:46;9.20;99.90
29295;DHT22;16305;48.566;8.846;2022-12-29T08:10:12;9.20;99.90
29295;DHT22;16305;48.566;8.846;2022-12-29T08:12:39;9.20;99.90
29295;DHT22;16305;48.566;8.846;2022-12-29T08:15:06;9.20;99.90
29295;DHT22;16305;48.566;8.846;2022-12-29T08:17:31;9.20;99.90
29295;DHT22;16305;48.566;8.846;2022-12-29T08:19:58;9.20;99.90
29295;DHT22;16305;48.566;8.846;2022-12-29T08:22:23;9.10;99.90
29295;DHT22;16305;48.566;8.846;2022-12-29T08:24:49;9.00;99.90
29295;DHT22;16305;48.566;8.846;2022-12-29T08:27:15;9.00;99.90
29295;DHT22;16305;48.566;8.846;2022-12-29T08:29:40;9.10;99.90
29295;DHT22;16305;48.566;8.846;2022-12-29T08:32:06;9.20;99.90
29295;DHT22;16305;48.566;8.846;2022-12-29T08:34:32;9.20;99.90
29295;DHT22;16305;48.566;8.846;2022-12-29T08:36:57;9.30;99.90
29295;DHT22;16305;48.566;8.846;2022-12-29T08:39:23;9.60;99.90
29295;DHT22;16305;48.566;8.846;2022-12-29T08:41:49;10.00;99.90
29295;DHT22;16305;48.566;8.846;2022-12-29T08:44:14;10.60;99.90
29295;DHT22;16305;48.566;8.846;2022-12-29T08:46:40;10.70;99.90
29295;DHT22;16305;48.566;8.846;2022-12-29T08:49:05;10.90;99.90
29295;DHT22;16305;48.566;8.846;2022-12-29T08:51:31;11.00;99.90
29295;DHT22;16305;48.566;8.846;2022-12-29T08:53:56;11.10;99.90
29295;DHT22;16305;48.566;8.846;2022-12-29T08:56:22;11.30;99.90
29295;DHT22;16305;48.566;8.846;2022-12-29T08:58:49;11.30;99.90
29295;DHT22;16305;48.566;8.846;2022-12-29T09:01:15;11.20;99.90
29295;DHT22;16305;48.566;8.846;2022-12-29T09:03:40;11.20;99.90
29295;DHT22;16305;48.566;8.846;2022-12-29T09:06:06;11.10;99.90
29295;DHT22;16305;48.566;8.846;2022-12-29T09:08:32;11.10;99.90
29295;DHT22;16305;48.566;8.846;2022-12-29T09:11:09;11.20;99.90
29295;DHT22;16305;48.566;8.846;2022-12-29T09:13:35;11.20;99.90
29295;DHT22;16305;48.566;8.846;2022-12-29T09:16:01;11.10;99.90
29295;DHT22;16305;48.566;8.846;2022-12-29T09:18:26;11.10;99.90
29295;DHT22;16305;48.566;8.846;2022-12-29T09:20:58;11.20;99.90
29295;DHT22;16305;48.566;8.846;2022-12-29T09:23:25;11.20;99.90
29295;DHT22;16305;48.566;8.846;2022-12-29T09:25:51;11.30;99.90
29295;DHT22;16305;48.566;8.846;2022-12-29T09:28:17;11.40;99.90
29295;DHT22;16305;48.566;8.846;2022-12-29T09:30:42;11.30;99.90
29295;DHT22;16305;48.566;8.846;2022-12-29T09:33:08;11.40;99.90
29295;DHT22;16305;48.566;8.846;2022-12-29T09:35:33;11.50;99.90
29295;DHT22;16305;48.566;8.846;2022-12-29T09:37:59;11.50;99.90
29295;DHT22;16305;48.566;8.846;2022-12-29T09:43:05;11.60;99.90
29295;DHT22;16305;48.566;8.846;2022-12-29T09:45:40;11.60;99.90
29295;DHT22;16305;48.566;8.846;2022-12-29T09:48:20;11.60;99.90
29295;DHT22;16305;48.566;8.846;2022-12-29T09:50:51;11.40;99.90
29295;DHT22;16305;48.566;8.846;2022-12-29T09:53:37;11.40;99.90
29295;DHT22;16305;48.566;8.846;2022-12-29T09:56:05;11.40;99.90
29295;DHT22;16305;48.566;8.846;2022-12-29T09:59:09;11.50;99.90
29295;DHT22;16305;48.566;8.846;2022-12-29T10:01:57;11.50;99.90
29295;DHT22;16305;48.566;8.846;2022-12-29T10:04:26;11.50;99.90
29295;DHT22;16305;48.566;8.846;2022-12-29T10:07:27;11.50;99.90
29295;DHT22;16305;48.566;8.846;2022-12-29T10:10:18;11.40;99.90
29295;DHT22;16305;48.566;8.846;2022-12-29T10:12:57;11.50;99.90
29295;DHT22;16305;48.566;8.846;2022-12-29T10:15:46;11.40;99.90
29295;DHT22;16305;48.566;8.846;2022-12-29T10:18:45;11.50;99.90
29295;DHT22;16305;48.566;8.846;2022-12-29T10:21:17;11.50;99.90
29295;DHT22;16305;48.566;8.846;2022-12-29T10:23:53;11.50;99.90
29295;DHT22;16305;48.566;8.846;2022-12-29T10:26:23;11.50;99.90
29295;DHT22;16305;48.566;8.846;2022-12-29T10:29:16;11.60;99.90
29295;DHT22;16305;48.566;8.846;2022-12-29T10:31:48;11.50;99.90
29295;DHT22;16305;48.566;8.846;2022-12-29T10:34:34;11.50;99.90
29295;DHT22;16305;48.566;8.846;2022-12-29T10:37:12;11.40;99.90
29295;DHT22;16305;48.566;8.846;2022-12-29T10:39:51;11.40;99.90
29295;DHT22;16305;48.566;8.846;2022-12-29T10:42:33;11.50;99.90
29295;DHT22;16305;48.566;8.846;2022-12-29T10:45:02;11.50;99.90
29295;DHT22;16305;48.566;8.846;2022-12-29T10:47:34;11.60;99.90
29295;DHT22;16305;48.566;8.846;2022-12-29T10:50:01;11.60;99.90
29295;DHT22;16305;48.566;8.846;2022-12-29T10:52:28;11.50;99.90
29295;DHT22;16305;48.566;8.846;2022-12-29T10:55:00;11.50;99.90
29295;DHT22;16305;48.566;8.846;2022-12-29T10:57:40;11.40;99.90
29295;DHT22;16305;48.566;8.846;2022-12-29T11:08:04;11.30;99.90
29295;DHT22;16305;48.566;8.846;2022-12-29T11:13:26;11.10;99.90
29295;DHT22;16305;48.566;8.846;2022-12-29T11:15:52;11.10;99.90
29295;DHT22;16305;48.566;8.846;2022-12-29T11:20:47;10.90;99.90
29295;DHT22;16305;48.566;8.846;2022-12-29T11:26:17;10.80;99.90
29295;DHT22;16305;48.566;8.846;2022-12-29T11:28:47;10.80;99.90
29295;DHT22;16305;48.566;8.846;2022-12-29T11:31:17;10.90;99.90
29295;DHT22;16305;48.566;8.846;2022-12-29T11:33:43;10.90;99.90
29295;DHT22;16305;48.566;8.846;2022-12-29T11:36:13;10.90;99.90
29295;DHT22;16305;48.566;8.846;2022-12-29T11:38:51;10.90;99.90
29295;DHT22;16305;48.566;8.846;2022-12-29T11:41:26;10.80;99.90
29295;DHT22;16305;48.566;8.846;2022-12-29T11:43:53;10.70;99.90
29295;DHT22;16305;48.566;8.846;2022-12-29T11:46:32;10.60;99.90
29295;DHT22;16305;48.566;8.846;2022-12-29T11:48:59;10.60;99.90
29295;DHT22;16305;48.566;8.846;2022-12-29T11:51:46;10.50;99.90
29295;DHT22;16305;48.566;8.846;2022-12-29T11:54:29;10.60;99.90
29295;DHT22;16305;48.566;8.846;2022-12-29T11:56:56;11.00;99.90
29295;DHT22;16305;48.566;8.846;2022-12-29T12:01:57;10.70;99.90
29295;DHT22;16305;48.566;8.846;2022-12-29T12:04:27;10.60;99.90
29295;DHT22;16305;48.566;8.846;2022-12-29T12:07:22;10.60;99.90
29295;DHT22;16305;48.566;8.846;2022-12-29T12:09:53;10.50;99.90
29295;DHT22;16305;48.566;8.846;2022-12-29T12:12:41;10.60;99.90
29295;DHT22;16305;48.566;8.846;2022-12-29T12:15:15;10.60;99.90
29295;DHT22;16305;48.566;8.846;2022-12-29T12:18:01;10.60;99.90
29295;DHT22;16305;48.566;8.846;2022-12-29T12:20:44;10.60;99.90
29295;DHT22;16305;48.566;8.846;2022-12-29T12:23:27;10.60;99.90
29295;DHT22;16305;48.566;8.846;2022-12-29T12:31:53;10.50;99.90
29295;DHT22;16305;48.566;8.846;2022-12-29T12:34:30;10.30;99.90
29295;DHT22;16305;48.566;8.846;2022-12-29T12:42:35;10.30;99.90
29295;DHT22;16305;48.566;8.846;2022-12-29T12:45:55;10.30;99.90
29295;DHT22;16305;48.566;8.846;2022-12-29T12:51:01;10.40;99.90
29295;DHT22;16305;48.566;8.846;2022-12-29T12:53:40;10.90;99.90
29295;DHT22;16305;48.566;8.846;2022-12-29T12:56:43;11.40;99.90
29295;DHT22;16305;48.566;8.846;2022-12-29T13:07:29;10.60;99.90
29295;DHT22;16305;48.566;8.846;2022-12-29T13:12:50;10.70;99.90
29295;DHT22;16305;48.566;8.846;2022-12-29T13:15:54;11.10;99.90
29295;DHT22;16305;48.566;8.846;2022-12-29T13:18:37;11.20;99.90
29295;DHT22;16305;48.566;8.846;2022-12-29T13:24:35;10.70;99.90
29295;DHT22;16305;48.566;8.846;2022-12-29T13:27:30;10.60;99.90
29295;DHT22;16305;48.566;8.846;2022-12-29T13:35:53;10.50;99.90
29295;DHT22;16305;48.566;8.846;2022-12-29T13:38:21;10.60;99.90
29295;DHT22;16305;48.566;8.846;2022-12-29T13:41:00;10.60;99.90
29295;DHT22;16305;48.566;8.846;2022-12-29T13:43:27;10.60;99.90
29295;DHT22;16305;48.566;8.846;2022-12-29T13:46:31;10.80;99.90
29295;DHT22;16305;48.566;8.846;2022-12-29T13:49:02;10.70;99.90
29295;DHT22;16305;48.566;8.846;2022-12-29T13:51:30;10.80;99.90
29295;DHT22;16305;48.566;8.846;2022-12-29T13:54:05;11.20;99.90
29295;DHT22;16305;48.566;8.846;2022-12-29T13:56:38;11.80;99.90
29295;DHT22;16305;48.566;8.846;2022-12-29T13:59:31;11.50;99.90
29295;DHT22;16305;48.566;8.846;2022-12-29T14:05:02;11.40;99.90
29295;DHT22;16305;48.566;8.846;2022-12-29T14:07:29;11.20;99.90
29295;DHT22;16305;48.566;8.846;2022-12-29T14:09:56;11.40;99.90
29295;DHT22;16305;48.566;8.846;2022-12-29T14:17:37;10.90;99.90
29295;DHT22;16305;48.566;8.846;2022-12-29T14:20:04;10.90;99.90
29295;DHT22;16305;48.566;8.846;2022-12-29T14:22:33;10.80;99.90
29295;DHT22;16305;48.566;8.846;2022-12-29T14:24:59;10.70;99.90
29295;DHT22;16305;48.566;8.846;2022-12-29T14:29:53;10.70;99.90
29295;DHT22;16305;48.566;8.846;2022-12-29T14:34:54;10.60;99.90
29295;DHT22;16305;48.566;8.846;2022-12-29T14:37:33;10.60;99.90
29295;DHT22;16305;48.566;8.846;2022-12-29T14:42:39;10.40;99.90
29295;DHT22;16305;48.566;8.846;2022-12-29T14:45:26;10.40;99.90
29295;DHT22;16305;48.566;8.846;2022-12-29T14:47:53;10.40;99.90
29295;DHT22;16305;48.566;8.846;2022-12-29T14:50:41;10.40;99.90
29295;DHT22;16305;48.566;8.846;2022-12-29T14:56:28;10.40;99.90
29295;DHT22;16305;48.566;8.846;2022-12-29T14:59:00;10.30;99.90
29295;DHT22;16305;48.566;8.846;2022-12-29T15:01:43;10.30;99.90
29295;DHT22;16305;48.566;8.846;2022-12-29T15:04:34;10.30;99.90
29295;DHT22;16305;48.566;8.846;2022-12-29T15:07:02;10.20;99.90
29295;DHT22;16305;48.566;8.846;2022-12-29T15:09:35;10.20;99.90
29295;DHT22;16305;48.566;8.846;2022-12-29T15:12:30;10.20;99.90
29295;DHT22;16305;48.566;8.846;2022-12-29T15:15:00;10.20;99.90
29295;DHT22;16305;48.566;8.846;2022-12-29T15:17:34;10.20;99.90
29295;DHT22;16305;48.566;8.846;2022-12-29T15:20:14;10.20;99.90
29295;DHT22;16305;48.566;8.846;2022-12-29T15:22:43;10.20;99.90
29295;DHT22;16305;48.566;8.846;2022-12-29T15:25:15;10.20;99.90
29295;DHT22;16305;48.566;8.846;2022-12-29T15:27:41;10.20;99.90
29295;DHT22;16305;48.566;8.846;2022-12-29T15:30:12;10.20;99.90
29295;DHT22;16305;48.566;8.846;2022-12-29T15:32:50;10.20;99.90
29295;DHT22;16305;48.566;8.846;2022-12-29T15:35:36;10.20;99.90
29295;DHT22;16305;48.566;8.846;2022-12-29T15:38:14;10.20;99.90
29295;DHT22;16305;48.566;8.846;2022-12-29T15:40:43;10.20;99.90
29295;DHT22;16305;48.566;8.846;2022-12-29T15:43:15;10.10;99.90
29295;DHT22;16305;48.566;8.846;2022-12-29T15:45:43;10.20;99.90
29295;DHT22;16305;48.566;8.846;2022-12-29T15:48:27;10.20;99.90
29295;DHT22;16305;48.566;8.846;2022-12-29T15:50:53;10.20;99.90
29295;DHT22;16305;48.566;8.846;2022-12-29T15:53:30;10.10;99.90
29295;DHT22;16305;48.566;8.846;2022-12-29T15:56:00;10.10;99.90
29295;DHT22;16305;48.566;8.846;2022-12-29T15:58:28;10.00;99.90
29295;DHT22;16305;48.566;8.846;2022-12-29T16:01:02;10.10;99.90
29295;DHT22;16305;48.566;8.846;2022-12-29T16:03:32;10.10;99.90
29295;DHT22;16305;48.566;8.846;2022-12-29T16:06:10;10.10;99.90
29295;DHT22;16305;48.566;8.846;2022-12-29T16:08:38;10.10;99.90
29295;DHT22;16305;48.566;8.846;2022-12-29T16:11:20;10.10;99.90
29295;DHT22;16305;48.566;8.846;2022-12-29T16:13:48;10.10;99.90
29295;DHT22;16305;48.566;8.846;2022-12-29T16:16:19;10.10;99.90
29295;DHT22;16305;48.566;8.846;2022-12-29T16:18:46;10.10;99.90
29295;DHT22;16305;48.566;8.846;2022-12-29T16:21:28;10.00;99.90
29295;DHT22;16305;48.566;8.846;2022-12-29T16:23:55;10.00;99.90
29295;DHT22;16305;48.566;8.846;2022-12-29T16:26:23;10.00;99.90
29295;DHT22;16305;48.566;8.846;2022-12-29T16:28:56;9.90;99.90
29295;DHT22;16305;48.566;8.846;2022-12-29T16:31:35;9.90;99.90
29295;DHT22;16305;48.566;8.846;2022-12-29T16:34:26;9.90;99.90
29295;DHT22;16305;48.566;8.846;2022-12-29T16:36:58;9.80;99.90
29295;DHT22;16305;48.566;8.846;2022-12-29T16:39:38;9.90;99.90
29295;DHT22;16305;48.566;8.846;2022-12-29T16:47:43;9.80;99.90
29295;DHT22;16305;48.566;8.846;2022-12-29T16:50:19;9.80;99.90
29295;DHT22;16305;48.566;8.846;2022-12-29T16:52:49;9.80;99.90
29295;DHT22;16305;48.566;8.846;2022-12-29T16:55:18;9.90;99.90
29295;DHT22;16305;48.566;8.846;2022-12-29T16:57:47;9.80;99.90
29295;DHT22;16305;48.566;8.846;2022-12-29T17:00:27;9.80;99.90
29295;DHT22;16305;48.566;8.846;2022-12-29T17:02:57;9.80;99.90
29295;DHT22;16305;48.566;8.846;2022-12-29T17:05:23;9.70;99.90
29295;DHT22;16305;48.566;8.846;2022-12-29T17:07:48;9.60;99.90
29295;DHT22;16305;48.566;8.846;2022-12-29T17:10:16;9.60;99.90
29295;DHT22;16305;48.566;8.846;2022-12-29T17:12:43;9.50;99.90
29295;DHT22;16305;48.566;8.846;2022-12-29T17:15:27;9.40;99.90
29295;DHT22;16305;48.566;8.846;2022-12-29T17:17:55;9.30;99.90
29295;DHT22;16305;48.566;8.846;2022-12-29T17:20:26;9.30;99.90
29295;DHT22;16305;48.566;8.846;2022-12-29T17:22:52;9.30;99.90
29295;DHT22;16305;48.566;8.846;2022-12-29T17:25:28;9.30;99.90
29295;DHT22;16305;48.566;8.846;2022-12-29T17:27:59;9.30;99.90
29295;DHT22;16305;48.566;8.846;2022-12-29T17:30:26;9.20;99.90
29295;DHT22;16305;48.566;8.846;2022-12-29T17:32:55;9.10;99.90
29295;DHT22;16305;48.566;8.846;2022-12-29T17:35:22;9.10;99.90
29295;DHT22;16305;48.566;8.846;2022-12-29T17:37:48;9.10;99.90
29295;DHT22;16305;48.566;8.846;2022-12-29T17:40:29;9.00;99.90
29295;DHT22;16305;48.566;8.846;2022-12-29T17:42:58;9.00;99.90
29295;DHT22;16305;48.566;8.846;2022-12-29T17:45:28;9.00;99.90
29295;DHT22;16305;48.566;8.846;2022-12-29T17:47:55;9.00;99.90